createdAt,value
2023-02-02T00:01:02.267Z,9.05
2023-02-02T00:03:30.280Z,8.35
2023-02-02T00:05:57.824Z,8.13
2023-02-02T00:08:24.702Z,6.40
2023-02-02T00:10:51.639Z,5.88
2023-02-02T00:13:18.422Z,5.43
2023-02-02T00:15:45.338Z,5.60
2023-02-02T00:18:12.091Z,6.07
2023-02-02T00:20:38.935Z,7.32
2023-02-02T00:23:05.871Z,6.65
2023-02-02T00:25:33.406Z,6.43
2023-02-02T00:28:00.180Z,6.18
2023-02-02T00:30:29.592Z,5.65
2023-02-02T00:32:56.396Z,5.22
2023-02-02T00:35:24.488Z,4.53
2023-02-02T00:37:51.461Z,5.20
2023-02-02T00:40:18.551Z,4.47
2023-02-02T00:42:49.264Z,4.45
2023-02-02T00:45:16.483Z,5.82
2023-02-02T00:47:48.638Z,6.00
2023-02-02T00:50:19.533Z,7.53
2023-02-02T00:52:47.676Z,6.20
2023-02-02T00:55:16.365Z,6.25
2023-02-02T00:57:44.434Z,10.65
2023-02-02T01:00:17.789Z,8.43
2023-02-02T01:02:44.862Z,8.13
2023-02-02T01:05:12.849Z,6.05
2023-02-02T01:07:40.716Z,8.55
2023-02-02T01:10:11.045Z,7.55
2023-02-02T01:12:38.160Z,6.68
2023-02-02T01:15:06.116Z,5.68
2023-02-02T01:17:33.311Z,6.63
2023-02-02T01:20:00.196Z,5.95
2023-02-02T01:22:27.513Z,4.85
2023-02-02T01:24:56.977Z,5.78
2023-02-02T01:27:23.867Z,7.50
2023-02-02T01:29:50.573Z,11.93
2023-02-02T01:32:18.762Z,14.68
2023-02-02T01:34:46.058Z,8.45
2023-02-02T01:37:13.073Z,6.70
2023-02-02T01:39:39.832Z,6.80
2023-02-02T01:42:14.009Z,6.70
2023-02-02T01:44:53.193Z,6.55
2023-02-02T01:47:25.559Z,7.20
2023-02-02T01:49:54.333Z,6.03
2023-02-02T01:52:24.209Z,5.00
2023-02-02T01:54:56.218Z,5.70
2023-02-02T01:57:40.286Z,6.88
2023-02-02T02:00:10.687Z,5.72
2023-02-02T02:02:43.696Z,6.22
2023-02-02T02:05:12.096Z,4.57
2023-02-02T02:07:43.607Z,7.13
2023-02-02T02:10:11.139Z,9.60
2023-02-02T02:12:37.865Z,10.75
2023-02-02T02:15:24.015Z,9.50
2023-02-02T02:18:32.653Z,7.50
2023-02-02T02:21:53.161Z,9.20
2023-02-02T02:24:58.474Z,5.13
2023-02-02T02:27:31.636Z,6.28
2023-02-02T02:30:19.898Z,5.20
2023-02-02T02:32:52.501Z,5.30
2023-02-02T02:35:34.650Z,8.63
2023-02-02T02:38:32.853Z,10.32
2023-02-02T02:41:16.840Z,7.95
2023-02-02T02:44:08.385Z,7.40
2023-02-02T02:46:37.137Z,6.47
2023-02-02T02:49:04.658Z,6.38
2023-02-02T02:51:51.568Z,6.22
2023-02-02T02:54:32.865Z,5.63
2023-02-02T02:57:12.604Z,5.13
2023-02-02T02:59:55.498Z,5.10
2023-02-02T03:02:29.887Z,5.85
2023-02-02T03:05:38.184Z,4.97
2023-02-02T03:08:29.655Z,5.25
2023-02-02T03:10:58.686Z,4.53
2023-02-02T03:13:27.358Z,4.00
2023-02-02T03:15:55.126Z,4.15
2023-02-02T03:18:25.208Z,7.10
2023-02-02T03:20:52.046Z,11.57
2023-02-02T03:23:19.325Z,11.90
2023-02-02T03:25:46.566Z,8.88
2023-02-02T03:28:14.341Z,8.48
2023-02-02T03:30:43.308Z,7.20
2023-02-02T03:33:12.033Z,5.10
2023-02-02T03:35:39.031Z,4.20
2023-02-02T03:38:05.940Z,7.35
2023-02-02T03:40:32.848Z,6.60
2023-02-02T03:42:59.631Z,5.70
2023-02-02T03:45:30.255Z,6.25
2023-02-02T03:47:57.035Z,8.50
2023-02-02T03:50:25.269Z,7.68
2023-02-02T03:52:52.064Z,9.20
2023-02-02T03:55:18.755Z,7.47
2023-02-02T03:57:45.513Z,6.80
2023-02-02T04:00:12.768Z,5.97
2023-02-02T04:02:39.819Z,6.80
2023-02-02T04:05:06.719Z,8.20
2023-02-02T04:07:33.514Z,9.35
2023-02-02T04:10:00.359Z,10.00
2023-02-02T04:12:27.176Z,9.88
2023-02-02T04:14:53.948Z,7.88
2023-02-02T04:17:20.756Z,6.63
2023-02-02T04:19:47.531Z,7.60
2023-02-02T04:22:14.419Z,7.35
2023-02-02T04:24:41.155Z,7.30
2023-02-02T04:27:07.938Z,6.05
2023-02-02T04:29:34.656Z,6.13
2023-02-02T04:32:01.439Z,5.70
2023-02-02T04:34:28.213Z,5.57
2023-02-02T04:36:56.365Z,4.22
2023-02-02T04:39:23.087Z,3.95
2023-02-02T04:41:49.905Z,3.50
2023-02-02T04:44:17.278Z,4.65
2023-02-02T04:46:44.798Z,4.00
2023-02-02T04:49:12.370Z,3.30
2023-02-02T04:51:40.355Z,3.33
2023-02-02T04:54:07.585Z,3.42
2023-02-02T04:56:34.751Z,4.25
2023-02-02T04:59:02.045Z,3.20
2023-02-02T05:01:30.896Z,3.67
2023-02-02T05:03:57.897Z,3.63
2023-02-02T05:06:25.279Z,4.35
2023-02-02T05:08:52.080Z,4.28
2023-02-02T05:11:23.499Z,5.03
2023-02-02T05:13:53.098Z,3.75
2023-02-02T05:16:20.743Z,4.18
2023-02-02T05:18:52.657Z,3.60
2023-02-02T05:21:20.644Z,3.50
2023-02-02T05:23:47.473Z,3.78
2023-02-02T05:26:26.037Z,3.45
2023-02-02T05:28:53.509Z,3.85
2023-02-02T05:31:21.018Z,3.70
2023-02-02T05:33:47.867Z,3.63
2023-02-02T05:36:14.604Z,5.15
2023-02-02T05:38:41.413Z,4.00
2023-02-02T05:41:08.515Z,3.58
2023-02-02T05:43:35.329Z,3.78
2023-02-02T05:46:02.157Z,3.78
2023-02-02T05:48:28.985Z,3.85
2023-02-02T05:51:29.124Z,4.38
2023-02-02T05:53:56.058Z,4.53
2023-02-02T05:56:22.828Z,4.93
2023-02-02T05:58:49.961Z,5.47
2023-02-02T06:01:18.410Z,3.85
2023-02-02T06:03:45.391Z,4.47
2023-02-02T06:06:12.126Z,5.18
2023-02-02T06:08:38.900Z,5.00
2023-02-02T06:11:13.349Z,4.75
2023-02-02T06:13:40.397Z,4.75
2023-02-02T06:16:07.846Z,5.57
2023-02-02T06:18:36.056Z,5.72
2023-02-02T06:21:06.184Z,4.63
2023-02-02T06:23:34.266Z,4.50
2023-02-02T06:26:01.777Z,4.22
2023-02-02T06:28:28.864Z,4.57
2023-02-02T06:30:56.617Z,4.00
2023-02-02T06:33:23.363Z,5.00
2023-02-02T06:35:50.554Z,4.75
2023-02-02T06:38:17.327Z,6.90
2023-02-02T06:40:44.101Z,6.32
2023-02-02T06:43:15.099Z,5.43
2023-02-02T06:45:42.093Z,4.07
2023-02-02T06:48:11.065Z,5.85
2023-02-02T06:50:38.485Z,5.20
2023-02-02T06:53:05.425Z,6.57
2023-02-02T06:55:32.266Z,7.57
2023-02-02T06:58:00.122Z,7.03
2023-02-02T07:00:28.928Z,7.68
2023-02-02T07:05:25.401Z,6.82
2023-02-02T07:07:52.553Z,8.27
2023-02-02T07:11:09.428Z,6.70
2023-02-02T07:13:07.096Z,7.22
2023-02-02T07:15:34.678Z,9.13
2023-02-02T07:18:01.840Z,9.00
2023-02-02T07:20:28.637Z,7.63
2023-02-02T07:22:55.837Z,8.80
2023-02-02T07:25:24.349Z,10.63
2023-02-02T07:27:55.067Z,10.73
2023-02-02T07:30:22.186Z,11.48
2023-02-02T07:32:50.297Z,12.80
2023-02-02T07:35:17.727Z,8.88
2023-02-02T07:37:44.469Z,11.73
2023-02-02T07:40:11.717Z,11.07
2023-02-02T07:42:38.556Z,11.38
2023-02-02T07:45:29.700Z,12.00
2023-02-02T07:47:57.393Z,11.30
2023-02-02T07:50:25.458Z,11.10
2023-02-02T07:52:52.799Z,14.85
2023-02-02T07:55:20.185Z,15.05
2023-02-02T07:57:47.055Z,13.27
2023-02-02T08:00:14.260Z,13.15
2023-02-02T08:02:41.020Z,15.32
2023-02-02T08:05:08.038Z,13.48
2023-02-02T08:07:35.197Z,13.52
2023-02-02T08:10:02.318Z,13.40
2023-02-02T08:12:29.128Z,15.60
2023-02-02T08:14:55.986Z,15.88
2023-02-02T08:17:23.674Z,17.42
2023-02-02T08:19:50.795Z,17.30
2023-02-02T08:22:19.986Z,14.35
2023-02-02T08:24:48.164Z,17.83
2023-02-02T08:27:16.913Z,19.98
2023-02-02T08:29:43.926Z,19.35
2023-02-02T08:32:10.909Z,14.20
2023-02-02T08:34:37.932Z,21.77
2023-02-02T08:37:04.723Z,23.10
2023-02-02T08:39:31.619Z,24.50
2023-02-02T08:41:58.495Z,21.42
2023-02-02T08:44:26.905Z,19.55
2023-02-02T08:46:55.386Z,16.27
2023-02-02T08:49:22.211Z,16.92
2023-02-02T08:51:49.019Z,18.73
2023-02-02T08:54:15.778Z,21.20
2023-02-02T08:56:42.659Z,19.52
2023-02-02T08:59:09.694Z,18.83
2023-02-02T09:01:36.466Z,17.42
2023-02-02T09:04:06.550Z,14.30
2023-02-02T09:06:39.034Z,18.10
2023-02-02T09:09:08.144Z,15.52
2023-02-02T09:11:35.914Z,14.10
2023-02-02T09:14:03.837Z,13.13
2023-02-02T09:16:30.824Z,13.88
2023-02-02T09:18:57.563Z,13.60
2023-02-02T09:21:24.656Z,13.30
2023-02-02T09:23:56.076Z,13.20
2023-02-02T09:26:28.163Z,13.30
2023-02-02T09:29:02.539Z,12.45
2023-02-02T09:31:31.562Z,13.05
2023-02-02T09:34:03.263Z,13.27
2023-02-02T09:36:30.890Z,12.00
2023-02-02T09:38:57.609Z,13.27
2023-02-02T09:41:36.238Z,10.32
2023-02-02T09:44:08.820Z,9.40
2023-02-02T09:46:38.530Z,9.57
2023-02-02T09:49:13.556Z,7.97
2023-02-02T09:51:47.034Z,8.00
2023-02-02T09:54:41.725Z,9.43
2023-02-02T09:57:21.075Z,9.05
2023-02-02T09:59:50.833Z,8.10
2023-02-02T10:02:22.478Z,9.05
2023-02-02T10:04:58.366Z,7.72
2023-02-02T10:07:33.467Z,8.40
2023-02-02T10:10:08.011Z,8.80
2023-02-02T10:12:35.170Z,7.80
2023-02-02T10:15:35.871Z,8.40
2023-02-02T10:18:43.340Z,8.98
2023-02-02T10:21:30.629Z,6.20
2023-02-02T10:23:59.658Z,5.07
2023-02-02T10:26:28.045Z,4.85
2023-02-02T10:29:09.068Z,5.82
2023-02-02T10:31:38.908Z,5.25
2023-02-02T10:34:14.944Z,5.18
2023-02-02T10:36:54.993Z,5.35
2023-02-02T10:39:49.369Z,4.30
2023-02-02T10:42:42.807Z,3.88
2023-02-02T10:45:19.420Z,5.18
2023-02-02T10:47:46.827Z,4.95
2023-02-02T10:50:13.568Z,5.82
2023-02-02T10:53:08.506Z,6.38
2023-02-02T10:55:46.119Z,5.78
2023-02-02T10:58:12.928Z,6.53
2023-02-02T11:00:45.914Z,6.72
2023-02-02T11:03:16.285Z,8.65
2023-02-02T11:06:01.550Z,8.05
2023-02-02T11:08:31.424Z,7.75
2023-02-02T11:11:00.332Z,7.43
2023-02-02T11:13:32.414Z,7.10
2023-02-02T11:16:14.484Z,7.20
2023-02-02T11:18:44.239Z,7.68
2023-02-02T11:21:23.324Z,7.72
2023-02-02T11:24:01.838Z,6.85
2023-02-02T11:26:41.697Z,7.05
2023-02-02T11:29:49.112Z,6.43
2023-02-02T11:32:25.035Z,6.07
2023-02-02T11:35:17.333Z,6.53
2023-02-02T11:37:57.963Z,6.55
2023-02-02T11:40:35.775Z,6.03
2023-02-02T11:43:06.520Z,6.10
2023-02-02T11:45:39.872Z,5.82
2023-02-02T11:48:15.697Z,5.13
2023-02-02T11:50:56.836Z,4.80
2023-02-02T11:53:29.081Z,4.68
2023-02-02T11:56:01.332Z,5.35
2023-02-02T11:58:49.638Z,5.20
2023-02-02T12:01:25.772Z,4.78
2023-02-02T12:03:55.355Z,5.60
2023-02-02T12:06:23.507Z,3.78
2023-02-02T12:08:53.477Z,4.20
2023-02-02T12:11:51.604Z,4.60
2023-02-02T12:14:49.602Z,4.95
2023-02-02T12:17:28.244Z,4.60
2023-02-02T12:20:04.324Z,4.90
2023-02-02T12:23:07.897Z,5.10
2023-02-02T12:26:04.508Z,4.68
2023-02-02T12:28:41.891Z,4.78
2023-02-02T12:31:26.638Z,8.00
2023-02-02T12:34:17.036Z,5.28
2023-02-02T12:37:15.481Z,4.35
2023-02-02T12:40:19.995Z,12.25
2023-02-02T12:42:49.760Z,10.20
2023-02-02T12:45:19.702Z,6.60
2023-02-02T12:48:11.495Z,5.28
2023-02-02T12:50:44.437Z,4.57
2023-02-02T12:53:27.507Z,3.85
2023-02-02T12:56:12.989Z,4.68
2023-02-02T12:59:10.851Z,3.63
2023-02-02T13:02:05.233Z,4.53
2023-02-02T13:04:38.772Z,4.82
2023-02-02T13:07:38.600Z,4.88
2023-02-02T13:10:37.122Z,4.25
2023-02-02T13:13:28.937Z,5.57
2023-02-02T13:16:03.251Z,4.55
2023-02-02T13:18:36.065Z,4.88
2023-02-02T13:21:16.832Z,4.68
2023-02-02T13:23:50.351Z,4.70
2023-02-02T13:26:24.684Z,4.90
2023-02-02T13:28:59.992Z,5.30
2023-02-02T13:31:40.688Z,5.07
2023-02-02T13:34:19.326Z,4.53
2023-02-02T13:36:51.309Z,5.03
2023-02-02T13:39:24.020Z,4.13
2023-02-02T13:41:52.893Z,5.68
2023-02-02T13:44:30.068Z,5.93
2023-02-02T13:47:20.458Z,5.45
2023-02-02T13:49:54.555Z,4.65
2023-02-02T13:52:53.542Z,4.10
2023-02-02T13:55:49.201Z,3.75
2023-02-02T13:58:58.230Z,4.18
2023-02-02T14:01:25.825Z,4.78
2023-02-02T14:03:57.602Z,4.25
2023-02-02T14:06:26.601Z,4.78
2023-02-02T14:09:01.627Z,5.75
2023-02-02T14:11:35.189Z,4.97
2023-02-02T14:14:32.076Z,5.18
2023-02-02T14:17:13.901Z,5.25
2023-02-02T14:19:42.274Z,4.47
2023-02-02T14:22:09.048Z,4.47
2023-02-02T14:24:35.931Z,4.80
2023-02-02T14:27:08.594Z,5.25
2023-02-02T14:29:46.973Z,4.32
2023-02-02T14:32:29.301Z,4.78
2023-02-02T14:35:10.156Z,4.53
2023-02-02T14:37:41.561Z,4.40
2023-02-02T14:40:11.074Z,4.85
2023-02-02T14:43:21.546Z,5.25
2023-02-02T14:46:10.854Z,6.32
2023-02-02T14:48:39.200Z,5.43
2023-02-02T14:51:16.701Z,6.80
2023-02-02T14:53:56.023Z,5.72
2023-02-02T14:56:41.563Z,6.32
2023-02-02T14:59:18.267Z,5.85
2023-02-02T15:01:56.193Z,6.88
2023-02-02T15:04:23.334Z,6.28
2023-02-02T15:06:52.845Z,5.57
2023-02-02T15:09:29.227Z,5.40
2023-02-02T15:12:00.857Z,5.80
2023-02-02T15:14:31.217Z,6.60
2023-02-02T15:17:05.822Z,5.30
2023-02-02T15:19:40.324Z,5.47
2023-02-02T15:22:37.881Z,6.00
2023-02-02T15:25:21.796Z,5.78
2023-02-02T15:28:21.659Z,5.82
2023-02-02T15:30:58.583Z,5.68
2023-02-02T15:33:36.598Z,6.47
2023-02-02T15:36:13.800Z,5.85
2023-02-02T15:41:32.787Z,5.65
2023-02-02T15:44:00.615Z,5.30
2023-02-02T15:46:36.555Z,5.88
2023-02-02T15:49:34.410Z,5.03
2023-02-02T15:52:12.959Z,5.57
2023-02-02T15:54:50.669Z,5.80
2023-02-02T15:57:37.547Z,6.03
2023-02-02T16:00:29.702Z,6.00
2023-02-02T16:03:19.374Z,5.88
2023-02-02T16:08:24.705Z,6.15
2023-02-02T16:11:02.917Z,7.15
2023-02-02T16:13:32.651Z,7.13
2023-02-02T16:16:04.277Z,5.88
2023-02-02T16:18:31.230Z,9.63
2023-02-02T16:21:02.486Z,11.48
2023-02-02T16:23:34.669Z,10.50
2023-02-02T16:26:05.100Z,10.70
2023-02-02T16:28:32.578Z,12.80
2023-02-02T16:31:01.713Z,11.18
2023-02-02T16:33:42.104Z,11.85
2023-02-02T16:36:25.600Z,14.18
2023-02-02T16:38:54.469Z,12.55
2023-02-02T16:41:30.992Z,12.70
2023-02-02T16:44:31.231Z,12.38
2023-02-02T16:46:59.988Z,13.02
2023-02-02T16:49:28.138Z,12.15
2023-02-02T16:52:19.002Z,12.95
2023-02-02T16:54:57.366Z,12.52
2023-02-02T16:57:33.075Z,14.60
2023-02-02T17:00:05.578Z,17.13
2023-02-02T17:02:37.652Z,21.30
2023-02-02T17:05:19.251Z,16.25
2023-02-02T17:08:00.993Z,16.05
2023-02-02T17:10:32.173Z,13.55
2023-02-02T17:13:00.311Z,12.40
2023-02-02T17:15:35.739Z,10.68
2023-02-02T17:18:05.010Z,16.30
2023-02-02T17:20:34.374Z,14.65
2023-02-02T17:23:07.205Z,16.58
2023-02-02T17:25:42.781Z,14.60
2023-02-02T17:28:12.858Z,15.55
2023-02-02T17:30:41.757Z,17.63
2023-02-02T17:33:15.019Z,17.50
2023-02-02T17:35:53.735Z,15.32
2023-02-02T17:38:22.682Z,13.15
2023-02-02T17:40:50.136Z,12.27
2023-02-02T17:43:17.006Z,12.95
2023-02-02T17:45:43.837Z,11.00
2023-02-02T17:48:13.144Z,12.13
2023-02-02T17:50:42.316Z,15.55
2023-02-02T17:53:14.668Z,14.38
2023-02-02T17:55:43.639Z,19.52
2023-02-02T17:58:13.215Z,20.70
2023-02-02T18:00:40.940Z,17.27
2023-02-02T18:03:23.729Z,16.25
2023-02-02T18:05:52.592Z,15.10
2023-02-02T18:08:20.001Z,20.77
2023-02-02T18:10:47.085Z,20.75
2023-02-02T18:13:19.463Z,19.75
2023-02-02T18:15:47.607Z,19.52
2023-02-02T18:18:14.544Z,18.00
2023-02-02T18:20:45.839Z,18.55
2023-02-02T18:23:14.072Z,17.75
2023-02-02T18:25:41.191Z,18.75
2023-02-02T18:28:10.280Z,18.38
2023-02-02T18:30:41.322Z,16.08
2023-02-02T18:33:12.259Z,16.50
2023-02-02T18:35:42.919Z,15.68
2023-02-02T18:38:10.040Z,15.65
2023-02-02T18:40:38.000Z,16.73
2023-02-02T18:43:04.880Z,15.02
2023-02-02T18:45:31.679Z,19.30
2023-02-02T18:47:58.547Z,19.92
2023-02-02T18:50:25.333Z,18.75
2023-02-02T18:52:52.268Z,23.17
2023-02-02T18:55:19.184Z,20.00
2023-02-02T18:57:46.043Z,16.98
2023-02-02T19:00:13.418Z,16.65
2023-02-02T19:02:40.503Z,12.30
2023-02-02T19:05:26.128Z,11.20
2023-02-02T19:07:56.239Z,14.13
2023-02-02T19:10:24.935Z,14.88
2023-02-02T19:12:57.543Z,11.85
2023-02-02T19:15:26.809Z,11.30
2023-02-02T19:17:55.432Z,12.85
2023-02-02T19:20:28.288Z,12.60
2023-02-02T19:23:25.957Z,10.90
2023-02-02T19:25:55.420Z,11.02
2023-02-02T19:28:25.550Z,10.23
2023-02-02T19:30:54.735Z,9.07
2023-02-02T19:33:26.026Z,13.02
2023-02-02T19:35:54.486Z,10.88
2023-02-02T19:38:21.951Z,11.25
2023-02-02T19:40:48.711Z,10.75
2023-02-02T19:43:25.109Z,9.60
2023-02-02T19:45:53.055Z,9.40
2023-02-02T19:48:26.671Z,10.43
2023-02-02T19:50:55.827Z,16.35
2023-02-02T19:53:35.639Z,13.93
2023-02-02T19:56:07.621Z,19.10
2023-02-02T19:58:37.572Z,20.38
2023-02-02T20:01:17.456Z,23.17
2023-02-02T20:03:46.628Z,20.15
2023-02-02T20:06:22.669Z,25.42
2023-02-02T20:08:49.705Z,20.63
2023-02-02T20:11:19.637Z,20.42
2023-02-02T20:13:48.512Z,20.30
2023-02-02T20:16:21.295Z,19.70
2023-02-02T20:18:53.920Z,17.85
2023-02-02T20:21:29.893Z,15.80
2023-02-02T20:23:56.821Z,15.82
2023-02-02T20:26:27.434Z,18.58
2023-02-02T20:28:57.784Z,18.00
2023-02-02T20:31:34.772Z,16.65
2023-02-02T20:34:02.225Z,19.55
2023-02-02T20:36:43.876Z,20.30
2023-02-02T20:39:26.501Z,16.55
2023-02-02T20:41:55.091Z,14.43
2023-02-02T20:44:24.248Z,17.67
2023-02-02T20:46:51.874Z,18.98
2023-02-02T20:49:20.989Z,19.95
2023-02-02T20:51:48.096Z,17.50
2023-02-02T20:54:15.059Z,17.80
2023-02-02T20:56:42.304Z,23.38
2023-02-02T20:59:09.327Z,26.70
2023-02-02T21:01:36.902Z,25.40
2023-02-02T21:04:07.254Z,23.52
2023-02-02T21:06:36.063Z,21.48
2023-02-02T21:09:04.874Z,18.92
2023-02-02T21:11:32.630Z,15.52
2023-02-02T21:14:00.255Z,15.23
2023-02-02T21:16:27.943Z,13.07
2023-02-02T21:18:55.219Z,16.00
2023-02-02T21:21:22.769Z,14.18
2023-02-02T21:23:51.669Z,15.45
2023-02-02T21:26:22.186Z,16.65
2023-02-02T21:28:49.762Z,23.13
2023-02-02T21:31:17.625Z,19.23
2023-02-02T21:33:46.436Z,19.95
2023-02-02T21:36:37.448Z,21.83
2023-02-02T21:39:21.985Z,20.98
2023-02-02T21:41:50.509Z,24.95
2023-02-02T21:44:20.714Z,23.35
2023-02-02T21:46:50.640Z,23.45
2023-02-02T21:49:25.088Z,24.02
2023-02-02T21:51:56.002Z,29.98
2023-02-02T21:54:22.755Z,29.67
2023-02-02T21:56:51.474Z,24.20
2023-02-02T21:59:29.230Z,26.77
2023-02-02T22:01:56.332Z,27.30
2023-02-02T22:04:28.941Z,24.05
2023-02-02T22:07:13.868Z,22.48
2023-02-02T22:09:43.397Z,21.80
2023-02-02T22:12:17.845Z,20.98
2023-02-02T22:14:45.627Z,18.27
2023-02-02T22:17:51.199Z,19.23
2023-02-02T22:20:37.254Z,18.73
2023-02-02T22:23:04.663Z,24.35
2023-02-02T22:25:33.950Z,24.48
2023-02-02T22:28:11.684Z,22.88
2023-02-02T22:30:41.703Z,19.27
2023-02-02T22:33:11.406Z,20.88
2023-02-02T22:35:38.675Z,18.58
2023-02-02T22:38:06.187Z,18.63
2023-02-02T22:40:33.099Z,16.65
2023-02-02T22:43:05.875Z,20.50
2023-02-02T22:45:33.135Z,18.85
2023-02-02T22:48:00.669Z,16.80
2023-02-02T22:50:30.454Z,19.30
2023-02-02T22:52:57.647Z,16.15
2023-02-02T22:55:24.593Z,17.63
2023-02-02T22:57:51.507Z,19.13
2023-02-02T23:00:29.522Z,16.92
2023-02-02T23:02:57.140Z,16.85
2023-02-02T23:05:25.406Z,15.00
2023-02-02T23:07:53.569Z,18.13
2023-02-02T23:10:22.869Z,16.80
2023-02-02T23:12:51.098Z,16.05
2023-02-02T23:15:19.414Z,16.23
2023-02-02T23:17:46.327Z,15.32
2023-02-02T23:20:14.327Z,15.60
2023-02-02T23:22:41.216Z,16.60
2023-02-02T23:25:08.200Z,15.70
2023-02-02T23:27:35.057Z,19.75
2023-02-02T23:30:01.961Z,17.75
2023-02-02T23:32:28.933Z,16.58
2023-02-02T23:34:55.692Z,16.13
2023-02-02T23:37:22.709Z,17.15
2023-02-02T23:39:49.494Z,16.77
2023-02-02T23:42:16.288Z,16.48
2023-02-02T23:44:43.226Z,15.95
2023-02-02T23:47:10.925Z,15.80
2023-02-02T23:49:38.246Z,16.13
2023-02-02T23:52:05.436Z,16.17
2023-02-02T23:54:33.077Z,18.80
2023-02-02T23:56:59.948Z,16.77
2023-02-02T23:59:26.940Z,19.77
